Industry, Illinois
Current Conditions -  °F | °C
As of 7:15 PM on Monday 20 Oct 2014 (Local Time) from KMQB Reporting Station
Haze Haze  
Wind Chill: 54°   Ceiling: Unl
Heat Index: 54°   Visibility: 3mi
Dew Point: 43°   Wind: 5mph
Humidity: 65%   Direction: 290°WNW
Pressure: 30"   Gusts: NA
Location:  40.33°N, 90.61°W
Report Text: KMQB 210015Z AUTO 29004KT 3SM HZ CLR 12/06 A3000 RMK AO2 T01240060
Loading
Personal Weather Stations






























Interactive Weather Map
Tropical Storm Tracking
New forecast layout! Learn more

10-Day Weather Forecast

Advertisements
Track Severe Weather on mobile